KRCA

Ellsworth AFB Airport

Rapid City, South Dakota, USA
METAR KRCA 191456Z AUTO 36009KT 10SM CLR 04/M03 A2960 RMK AO2 SLP039 T00371029 53018 $
Observed Flight Rules
Jan-19 @ 14:56 UTC (33 minutes ago) Visual Flight Rules
Wind Visibility Clouds
360° at 9 knots 10 miles
  • Clear skies
Temperatures Readings
Current 4°C / 39°F
Dewpoint -3°C / 27°F
Humidity 61%
Altimeter 29.6" Hg
Pressure 1003.9 hPa
Elevation 999
METAR KRCA 191456Z AUTO 36009KT 10SM CLR 04/M03 A2960 RMK AO2 SLP039 T00371029 53018 $
Observed Flight Rules
Jan-19 @ 14:56 UTC
(33 minutes ago)
VFR
Wind Visibility
360° at 9 knots 10 miles
Clouds
  • Clear skies
Temperature Dewpoint
4°C / 39°F -3°C / 27°F
Humidity Altimeter Pressure
61% 29.6" Hg 1003.9 hPa